sensor_id;sensor_type;location;lat;lon;timestamp;P1;durP1;ratioP1;P2;durP2;ratioP2
20411;SDS011;10365;52.578;8.138;2022-12-20T00:01:48;6.97;;;4.18;;
20411;SDS011;10365;52.578;8.138;2022-12-20T00:04:14;7.05;;;3.50;;
20411;SDS011;10365;52.578;8.138;2022-12-20T00:06:39;7.32;;;3.90;;
20411;SDS011;10365;52.578;8.138;2022-12-20T00:09:07;7.38;;;3.60;;
20411;SDS011;10365;52.578;8.138;2022-12-20T00:11:32;10.57;;;3.85;;
20411;SDS011;10365;52.578;8.138;2022-12-20T00:13:58;5.97;;;3.50;;
20411;SDS011;10365;52.578;8.138;2022-12-20T00:16:25;10.20;;;3.90;;
20411;SDS011;10365;52.578;8.138;2022-12-20T00:18:53;7.75;;;4.13;;
20411;SDS011;10365;52.578;8.138;2022-12-20T00:21:18;11.20;;;3.60;;
20411;SDS011;10365;52.578;8.138;2022-12-20T00:23:44;10.15;;;3.58;;
20411;SDS011;10365;52.578;8.138;2022-12-20T00:26:11;9.23;;;3.70;;
20411;SDS011;10365;52.578;8.138;2022-12-20T00:28:37;10.68;;;3.80;;
20411;SDS011;10365;52.578;8.138;2022-12-20T00:31:03;6.38;;;4.25;;
20411;SDS011;10365;52.578;8.138;2022-12-20T00:33:32;7.32;;;3.80;;
20411;SDS011;10365;52.578;8.138;2022-12-20T00:35:58;7.45;;;3.72;;
20411;SDS011;10365;52.578;8.138;2022-12-20T00:38:24;5.28;;;3.70;;
20411;SDS011;10365;52.578;8.138;2022-12-20T00:41:00;7.35;;;3.40;;
20411;SDS011;10365;52.578;8.138;2022-12-20T00:43:27;8.45;;;3.80;;
20411;SDS011;10365;52.578;8.138;2022-12-20T00:45:53;7.85;;;3.70;;
20411;SDS011;10365;52.578;8.138;2022-12-20T00:48:19;5.25;;;3.42;;
20411;SDS011;10365;52.578;8.138;2022-12-20T00:50:45;7.57;;;3.88;;
20411;SDS011;10365;52.578;8.138;2022-12-20T00:53:10;9.60;;;4.00;;
20411;SDS011;10365;52.578;8.138;2022-12-20T00:55:42;6.75;;;3.70;;
20411;SDS011;10365;52.578;8.138;2022-12-20T00:58:08;8.43;;;3.75;;
20411;SDS011;10365;52.578;8.138;2022-12-20T01:00:35;9.35;;;4.10;;
20411;SDS011;10365;52.578;8.138;2022-12-20T01:03:00;6.35;;;4.32;;
20411;SDS011;10365;52.578;8.138;2022-12-20T01:05:26;12.55;;;4.15;;
20411;SDS011;10365;52.578;8.138;2022-12-20T01:07:52;5.45;;;3.60;;
20411;SDS011;10365;52.578;8.138;2022-12-20T01:10:18;5.80;;;3.70;;
20411;SDS011;10365;52.578;8.138;2022-12-20T01:12:44;5.85;;;3.60;;
20411;SDS011;10365;52.578;8.138;2022-12-20T01:15:10;8.32;;;3.90;;
20411;SDS011;10365;52.578;8.138;2022-12-20T01:17:35;6.35;;;3.63;;
20411;SDS011;10365;52.578;8.138;2022-12-20T01:20:01;6.50;;;3.85;;
20411;SDS011;10365;52.578;8.138;2022-12-20T01:22:26;6.30;;;3.70;;
20411;SDS011;10365;52.578;8.138;2022-12-20T01:24:53;8.07;;;4.25;;
20411;SDS011;10365;52.578;8.138;2022-12-20T01:27:18;7.82;;;3.88;;
20411;SDS011;10365;52.578;8.138;2022-12-20T01:29:44;6.63;;;3.47;;
20411;SDS011;10365;52.578;8.138;2022-12-20T01:32:09;7.10;;;3.70;;
20411;SDS011;10365;52.578;8.138;2022-12-20T01:34:35;6.93;;;3.20;;
20411;SDS011;10365;52.578;8.138;2022-12-20T01:37:00;8.43;;;3.75;;
20411;SDS011;10365;52.578;8.138;2022-12-20T01:39:26;7.03;;;3.38;;
20411;SDS011;10365;52.578;8.138;2022-12-20T01:41:51;7.97;;;3.58;;
20411;SDS011;10365;52.578;8.138;2022-12-20T01:46:42;7.57;;;3.60;;
20411;SDS011;10365;52.578;8.138;2022-12-20T01:49:11;10.30;;;3.67;;
20411;SDS011;10365;52.578;8.138;2022-12-20T01:51:41;8.23;;;3.97;;
20411;SDS011;10365;52.578;8.138;2022-12-20T01:54:09;6.80;;;3.42;;
20411;SDS011;10365;52.578;8.138;2022-12-20T01:56:37;6.25;;;3.92;;
20411;SDS011;10365;52.578;8.138;2022-12-20T01:59:05;7.03;;;3.28;;
20411;SDS011;10365;52.578;8.138;2022-12-20T02:01:30;4.68;;;3.10;;
20411;SDS011;10365;52.578;8.138;2022-12-20T02:03:56;10.40;;;4.05;;
20411;SDS011;10365;52.578;8.138;2022-12-20T02:06:22;5.32;;;3.63;;
20411;SDS011;10365;52.578;8.138;2022-12-20T02:08:48;10.55;;;3.60;;
20411;SDS011;10365;52.578;8.138;2022-12-20T02:16:14;7.00;;;3.15;;
20411;SDS011;10365;52.578;8.138;2022-12-20T02:18:50;8.07;;;3.53;;
20411;SDS011;10365;52.578;8.138;2022-12-20T02:21:26;5.03;;;3.28;;
20411;SDS011;10365;52.578;8.138;2022-12-20T02:31:45;4.88;;;3.17;;
20411;SDS011;10365;52.578;8.138;2022-12-20T02:34:12;9.05;;;3.45;;
20411;SDS011;10365;52.578;8.138;2022-12-20T02:36:39;5.75;;;3.60;;
20411;SDS011;10365;52.578;8.138;2022-12-20T02:39:04;5.43;;;3.38;;
20411;SDS011;10365;52.578;8.138;2022-12-20T02:41:35;6.13;;;3.08;;
20411;SDS011;10365;52.578;8.138;2022-12-20T02:44:05;8.15;;;3.10;;
20411;SDS011;10365;52.578;8.138;2022-12-20T02:47:05;5.50;;;2.92;;
20411;SDS011;10365;52.578;8.138;2022-12-20T02:49:33;4.45;;;2.67;;
20411;SDS011;10365;52.578;8.138;2022-12-20T02:51:59;5.05;;;2.78;;
20411;SDS011;10365;52.578;8.138;2022-12-20T02:54:26;4.85;;;2.60;;
20411;SDS011;10365;52.578;8.138;2022-12-20T02:56:56;3.97;;;2.45;;
20411;SDS011;10365;52.578;8.138;2022-12-20T02:59:26;6.47;;;2.55;;
20411;SDS011;10365;52.578;8.138;2022-12-20T03:01:53;6.97;;;2.40;;
20411;SDS011;10365;52.578;8.138;2022-12-20T03:04:23;5.90;;;2.38;;
20411;SDS011;10365;52.578;8.138;2022-12-20T03:07:00;4.03;;;2.33;;
20411;SDS011;10365;52.578;8.138;2022-12-20T03:09:26;4.47;;;2.35;;
20411;SDS011;10365;52.578;8.138;2022-12-20T03:11:52;3.78;;;2.20;;
20411;SDS011;10365;52.578;8.138;2022-12-20T03:14:18;3.90;;;2.50;;
20411;SDS011;10365;52.578;8.138;2022-12-20T03:16:46;5.40;;;2.22;;
20411;SDS011;10365;52.578;8.138;2022-12-20T03:19:11;6.25;;;2.55;;
20411;SDS011;10365;52.578;8.138;2022-12-20T03:21:37;9.63;;;2.38;;
20411;SDS011;10365;52.578;8.138;2022-12-20T03:24:02;3.95;;;2.50;;
20411;SDS011;10365;52.578;8.138;2022-12-20T03:26:28;4.20;;;2.30;;
20411;SDS011;10365;52.578;8.138;2022-12-20T03:28:57;4.50;;;2.50;;
20411;SDS011;10365;52.578;8.138;2022-12-20T03:31:25;4.32;;;2.47;;
20411;SDS011;10365;52.578;8.138;2022-12-20T03:33:53;6.13;;;2.10;;
20411;SDS011;10365;52.578;8.138;2022-12-20T03:36:18;7.72;;;2.55;;
20411;SDS011;10365;52.578;8.138;2022-12-20T03:38:50;3.88;;;2.05;;
20411;SDS011;10365;52.578;8.138;2022-12-20T03:41:15;6.10;;;2.30;;
20411;SDS011;10365;52.578;8.138;2022-12-20T03:43:41;4.88;;;1.98;;
20411;SDS011;10365;52.578;8.138;2022-12-20T03:46:07;3.70;;;2.58;;
20411;SDS011;10365;52.578;8.138;2022-12-20T03:48:36;6.45;;;2.35;;
20411;SDS011;10365;52.578;8.138;2022-12-20T03:51:02;4.03;;;2.35;;
20411;SDS011;10365;52.578;8.138;2022-12-20T03:53:28;4.57;;;2.85;;
20411;SDS011;10365;52.578;8.138;2022-12-20T03:55:53;4.93;;;2.80;;
20411;SDS011;10365;52.578;8.138;2022-12-20T03:58:19;5.25;;;2.90;;
20411;SDS011;10365;52.578;8.138;2022-12-20T04:00:45;4.85;;;2.85;;
20411;SDS011;10365;52.578;8.138;2022-12-20T04:03:32;6.60;;;2.92;;
20411;SDS011;10365;52.578;8.138;2022-12-20T04:05:57;5.70;;;3.22;;
20411;SDS011;10365;52.578;8.138;2022-12-20T04:08:23;4.28;;;3.03;;
20411;SDS011;10365;52.578;8.138;2022-12-20T04:10:50;5.80;;;3.30;;
20411;SDS011;10365;52.578;8.138;2022-12-20T04:13:36;5.68;;;3.08;;
20411;SDS011;10365;52.578;8.138;2022-12-20T04:16:02;7.75;;;3.15;;
20411;SDS011;10365;52.578;8.138;2022-12-20T04:18:31;5.32;;;3.00;;
20411;SDS011;10365;52.578;8.138;2022-12-20T04:20:59;8.70;;;3.33;;
20411;SDS011;10365;52.578;8.138;2022-12-20T04:23:27;7.43;;;3.08;;
20411;SDS011;10365;52.578;8.138;2022-12-20T04:25:52;7.45;;;2.83;;
20411;SDS011;10365;52.578;8.138;2022-12-20T04:28:17;4.35;;;2.53;;
20411;SDS011;10365;52.578;8.138;2022-12-20T04:30:43;7.45;;;3.17;;
20411;SDS011;10365;52.578;8.138;2022-12-20T04:33:10;5.07;;;2.95;;
20411;SDS011;10365;52.578;8.138;2022-12-20T04:35:36;7.43;;;2.90;;
20411;SDS011;10365;52.578;8.138;2022-12-20T04:38:03;7.95;;;3.33;;
20411;SDS011;10365;52.578;8.138;2022-12-20T04:40:29;4.35;;;2.92;;
20411;SDS011;10365;52.578;8.138;2022-12-20T04:42:56;5.50;;;3.22;;
20411;SDS011;10365;52.578;8.138;2022-12-20T04:45:22;7.93;;;3.65;;
20411;SDS011;10365;52.578;8.138;2022-12-20T04:47:49;7.30;;;3.35;;
20411;SDS011;10365;52.578;8.138;2022-12-20T04:50:19;4.90;;;3.42;;
20411;SDS011;10365;52.578;8.138;2022-12-20T04:52:45;7.28;;;3.75;;
20411;SDS011;10365;52.578;8.138;2022-12-20T04:55:30;6.05;;;3.88;;
20411;SDS011;10365;52.578;8.138;2022-12-20T04:57:57;9.05;;;3.83;;
20411;SDS011;10365;52.578;8.138;2022-12-20T05:00:22;8.23;;;4.10;;
20411;SDS011;10365;52.578;8.138;2022-12-20T05:02:56;9.35;;;4.22;;
20411;SDS011;10365;52.578;8.138;2022-12-20T05:05:25;9.43;;;4.00;;
20411;SDS011;10365;52.578;8.138;2022-12-20T05:07:52;6.63;;;4.45;;
20411;SDS011;10365;52.578;8.138;2022-12-20T05:10:18;7.18;;;4.57;;
20411;SDS011;10365;52.578;8.138;2022-12-20T05:12:44;7.95;;;4.53;;
20411;SDS011;10365;52.578;8.138;2022-12-20T05:15:18;10.35;;;4.75;;
20411;SDS011;10365;52.578;8.138;2022-12-20T05:17:43;8.57;;;4.10;;
20411;SDS011;10365;52.578;8.138;2022-12-20T05:20:11;9.27;;;4.47;;
20411;SDS011;10365;52.578;8.138;2022-12-20T05:22:40;9.57;;;4.30;;
20411;SDS011;10365;52.578;8.138;2022-12-20T05:25:25;7.63;;;4.05;;
20411;SDS011;10365;52.578;8.138;2022-12-20T05:28:13;7.68;;;3.92;;
20411;SDS011;10365;52.578;8.138;2022-12-20T05:30:40;11.13;;;4.20;;
20411;SDS011;10365;52.578;8.138;2022-12-20T05:33:05;13.30;;;4.30;;
20411;SDS011;10365;52.578;8.138;2022-12-20T05:35:33;5.93;;;3.65;;
20411;SDS011;10365;52.578;8.138;2022-12-20T05:38:04;7.05;;;3.80;;
20411;SDS011;10365;52.578;8.138;2022-12-20T05:40:30;6.45;;;4.22;;
20411;SDS011;10365;52.578;8.138;2022-12-20T05:42:56;8.25;;;3.63;;
20411;SDS011;10365;52.578;8.138;2022-12-20T05:45:31;5.45;;;3.47;;
20411;SDS011;10365;52.578;8.138;2022-12-20T05:48:01;7.45;;;3.38;;
20411;SDS011;10365;52.578;8.138;2022-12-20T05:50:32;8.07;;;3.53;;
20411;SDS011;10365;52.578;8.138;2022-12-20T05:53:20;4.32;;;3.13;;
20411;SDS011;10365;52.578;8.138;2022-12-20T05:55:51;6.88;;;3.50;;
20411;SDS011;10365;52.578;8.138;2022-12-20T05:58:21;6.85;;;3.50;;
20411;SDS011;10365;52.578;8.138;2022-12-20T06:00:53;7.38;;;3.28;;
20411;SDS011;10365;52.578;8.138;2022-12-20T06:03:19;10.15;;;3.42;;
20411;SDS011;10365;52.578;8.138;2022-12-20T06:05:45;8.70;;;2.80;;
20411;SDS011;10365;52.578;8.138;2022-12-20T06:08:15;8.40;;;2.90;;
20411;SDS011;10365;52.578;8.138;2022-12-20T06:10:41;6.55;;;3.05;;
20411;SDS011;10365;52.578;8.138;2022-12-20T06:13:07;4.95;;;2.97;;
20411;SDS011;10365;52.578;8.138;2022-12-20T06:15:34;4.80;;;2.90;;
20411;SDS011;10365;52.578;8.138;2022-12-20T06:18:00;9.35;;;3.00;;
20411;SDS011;10365;52.578;8.138;2022-12-20T06:20:26;5.72;;;3.10;;
20411;SDS011;10365;52.578;8.138;2022-12-20T06:22:55;9.02;;;3.40;;
20411;SDS011;10365;52.578;8.138;2022-12-20T06:25:21;4.15;;;2.88;;
20411;SDS011;10365;52.578;8.138;2022-12-20T06:27:47;6.43;;;2.90;;
20411;SDS011;10365;52.578;8.138;2022-12-20T06:30:14;4.57;;;2.90;;
20411;SDS011;10365;52.578;8.138;2022-12-20T06:33:01;9.15;;;3.08;;
20411;SDS011;10365;52.578;8.138;2022-12-20T06:35:27;6.65;;;3.00;;
20411;SDS011;10365;52.578;8.138;2022-12-20T06:37:54;7.22;;;3.22;;
20411;SDS011;10365;52.578;8.138;2022-12-20T06:40:20;7.43;;;2.83;;
20411;SDS011;10365;52.578;8.138;2022-12-20T06:42:45;3.58;;;2.70;;
20411;SDS011;10365;52.578;8.138;2022-12-20T06:45:11;6.60;;;3.38;;
20411;SDS011;10365;52.578;8.138;2022-12-20T06:47:37;8.88;;;3.10;;
20411;SDS011;10365;52.578;8.138;2022-12-20T06:50:04;6.22;;;3.15;;
20411;SDS011;10365;52.578;8.138;2022-12-20T06:52:30;5.47;;;2.97;;
20411;SDS011;10365;52.578;8.138;2022-12-20T06:54:56;9.70;;;3.40;;
20411;SDS011;10365;52.578;8.138;2022-12-20T06:57:23;6.03;;;3.25;;
20411;SDS011;10365;52.578;8.138;2022-12-20T06:59:49;9.35;;;3.72;;
20411;SDS011;10365;52.578;8.138;2022-12-20T07:02:15;6.72;;;3.08;;
20411;SDS011;10365;52.578;8.138;2022-12-20T07:04:40;5.38;;;3.05;;
20411;SDS011;10365;52.578;8.138;2022-12-20T07:07:06;8.15;;;3.60;;
20411;SDS011;10365;52.578;8.138;2022-12-20T07:09:32;7.25;;;3.60;;
20411;SDS011;10365;52.578;8.138;2022-12-20T07:11:57;5.18;;;3.13;;
20411;SDS011;10365;52.578;8.138;2022-12-20T07:14:22;5.90;;;3.47;;
20411;SDS011;10365;52.578;8.138;2022-12-20T07:16:48;6.68;;;3.42;;
20411;SDS011;10365;52.578;8.138;2022-12-20T07:19:14;7.28;;;3.17;;
20411;SDS011;10365;52.578;8.138;2022-12-20T07:21:40;7.40;;;3.08;;
20411;SDS011;10365;52.578;8.138;2022-12-20T07:24:05;5.10;;;3.17;;
20411;SDS011;10365;52.578;8.138;2022-12-20T07:26:31;7.63;;;3.40;;
20411;SDS011;10365;52.578;8.138;2022-12-20T07:28:56;9.65;;;3.63;;
20411;SDS011;10365;52.578;8.138;2022-12-20T07:31:22;6.00;;;3.15;;
20411;SDS011;10365;52.578;8.138;2022-12-20T07:33:47;4.63;;;3.25;;
20411;SDS011;10365;52.578;8.138;2022-12-20T07:36:13;5.88;;;3.08;;
20411;SDS011;10365;52.578;8.138;2022-12-20T07:38:40;6.50;;;3.28;;
20411;SDS011;10365;52.578;8.138;2022-12-20T07:41:06;7.45;;;3.38;;
20411;SDS011;10365;52.578;8.138;2022-12-20T07:43:32;7.25;;;3.45;;
20411;SDS011;10365;52.578;8.138;2022-12-20T07:45:57;7.28;;;3.15;;
20411;SDS011;10365;52.578;8.138;2022-12-20T07:48:23;8.23;;;3.15;;
20411;SDS011;10365;52.578;8.138;2022-12-20T07:50:52;7.32;;;3.70;;
20411;SDS011;10365;52.578;8.138;2022-12-20T07:53:20;8.57;;;3.38;;
20411;SDS011;10365;52.578;8.138;2022-12-20T07:55:45;7.55;;;3.28;;
20411;SDS011;10365;52.578;8.138;2022-12-20T07:58:12;6.13;;;3.13;;
20411;SDS011;10365;52.578;8.138;2022-12-20T08:00:39;5.45;;;3.53;;
20411;SDS011;10365;52.578;8.138;2022-12-20T08:03:06;6.72;;;3.38;;
20411;SDS011;10365;52.578;8.138;2022-12-20T08:05:33;7.30;;;3.28;;
20411;SDS011;10365;52.578;8.138;2022-12-20T08:07:59;7.25;;;2.70;;
20411;SDS011;10365;52.578;8.138;2022-12-20T08:10:26;6.95;;;3.13;;
20411;SDS011;10365;52.578;8.138;2022-12-20T08:12:52;4.22;;;2.70;;
20411;SDS011;10365;52.578;8.138;2022-12-20T08:15:17;5.95;;;3.13;;
20411;SDS011;10365;52.578;8.138;2022-12-20T08:17:45;4.82;;;2.83;;
20411;SDS011;10365;52.578;8.138;2022-12-20T08:20:11;6.03;;;3.03;;
20411;SDS011;10365;52.578;8.138;2022-12-20T08:22:36;6.95;;;2.72;;
20411;SDS011;10365;52.578;8.138;2022-12-20T08:25:01;6.13;;;2.80;;
20411;SDS011;10365;52.578;8.138;2022-12-20T08:27:29;5.50;;;2.95;;
20411;SDS011;10365;52.578;8.138;2022-12-20T08:29:54;5.63;;;2.80;;
20411;SDS011;10365;52.578;8.138;2022-12-20T08:32:19;4.95;;;2.63;;
20411;SDS011;10365;52.578;8.138;2022-12-20T08:34:45;6.90;;;3.17;;
20411;SDS011;10365;52.578;8.138;2022-12-20T08:37:10;6.88;;;3.30;;
20411;SDS011;10365;52.578;8.138;2022-12-20T08:39:36;5.15;;;2.92;;
20411;SDS011;10365;52.578;8.138;2022-12-20T08:42:03;5.47;;;2.75;;
20411;SDS011;10365;52.578;8.138;2022-12-20T08:44:28;5.55;;;2.97;;
20411;SDS011;10365;52.578;8.138;2022-12-20T08:46:54;3.45;;;2.25;;
20411;SDS011;10365;52.578;8.138;2022-12-20T08:49:19;5.78;;;2.97;;
20411;SDS011;10365;52.578;8.138;2022-12-20T08:51:44;4.72;;;3.20;;
20411;SDS011;10365;52.578;8.138;2022-12-20T08:54:11;4.47;;;2.65;;
20411;SDS011;10365;52.578;8.138;2022-12-20T08:56:36;8.98;;;2.65;;
20411;SDS011;10365;52.578;8.138;2022-12-20T08:59:01;4.32;;;2.17;;
20411;SDS011;10365;52.578;8.138;2022-12-20T09:01:27;4.43;;;2.97;;
20411;SDS011;10365;52.578;8.138;2022-12-20T09:03:54;9.80;;;2.92;;
20411;SDS011;10365;52.578;8.138;2022-12-20T09:06:20;7.82;;;3.50;;
20411;SDS011;10365;52.578;8.138;2022-12-20T09:08:47;4.50;;;3.25;;
20411;SDS011;10365;52.578;8.138;2022-12-20T09:11:13;4.70;;;2.50;;
20411;SDS011;10365;52.578;8.138;2022-12-20T09:13:40;13.40;;;7.65;;
20411;SDS011;10365;52.578;8.138;2022-12-20T09:16:06;11.95;;;7.55;;
20411;SDS011;10365;52.578;8.138;2022-12-20T09:18:31;9.23;;;5.22;;
20411;SDS011;10365;52.578;8.138;2022-12-20T09:21:01;6.15;;;2.45;;
20411;SDS011;10365;52.578;8.138;2022-12-20T09:23:27;3.53;;;2.42;;
20411;SDS011;10365;52.578;8.138;2022-12-20T09:25:53;6.13;;;2.60;;
20411;SDS011;10365;52.578;8.138;2022-12-20T09:28:19;4.43;;;2.30;;
20411;SDS011;10365;52.578;8.138;2022-12-20T09:30:45;5.20;;;2.35;;
20411;SDS011;10365;52.578;8.138;2022-12-20T09:33:10;5.05;;;2.38;;
20411;SDS011;10365;52.578;8.138;2022-12-20T09:35:36;5.25;;;2.20;;
20411;SDS011;10365;52.578;8.138;2022-12-20T09:38:07;3.80;;;2.13;;
20411;SDS011;10365;52.578;8.138;2022-12-20T09:40:32;8.32;;;4.40;;
20411;SDS011;10365;52.578;8.138;2022-12-20T09:43:01;5.18;;;2.40;;
20411;SDS011;10365;52.578;8.138;2022-12-20T09:45:28;6.05;;;2.70;;
20411;SDS011;10365;52.578;8.138;2022-12-20T09:47:54;5.95;;;2.33;;
20411;SDS011;10365;52.578;8.138;2022-12-20T09:50:23;3.65;;;2.17;;
20411;SDS011;10365;52.578;8.138;2022-12-20T09:53:13;5.50;;;2.17;;
20411;SDS011;10365;52.578;8.138;2022-12-20T09:55:46;4.53;;;1.90;;
20411;SDS011;10365;52.578;8.138;2022-12-20T10:00:53;4.45;;;2.40;;
20411;SDS011;10365;52.578;8.138;2022-12-20T10:03:25;5.30;;;2.22;;
20411;SDS011;10365;52.578;8.138;2022-12-20T10:05:54;5.38;;;2.22;;
20411;SDS011;10365;52.578;8.138;2022-12-20T10:25:52;4.13;;;1.70;;
20411;SDS011;10365;52.578;8.138;2022-12-20T10:28:19;6.15;;;3.30;;
20411;SDS011;10365;52.578;8.138;2022-12-20T10:30:46;6.35;;;2.80;;
20411;SDS011;10365;52.578;8.138;2022-12-20T10:33:15;4.97;;;2.47;;
20411;SDS011;10365;52.578;8.138;2022-12-20T10:35:41;5.75;;;2.40;;
20411;SDS011;10365;52.578;8.138;2022-12-20T10:38:11;3.92;;;2.05;;
20411;SDS011;10365;52.578;8.138;2022-12-20T10:40:38;6.30;;;2.75;;
20411;SDS011;10365;52.578;8.138;2022-12-20T10:43:05;4.95;;;2.50;;
20411;SDS011;10365;52.578;8.138;2022-12-20T10:47:59;4.38;;;2.15;;
20411;SDS011;10365;52.578;8.138;2022-12-20T10:50:25;2.47;;;1.80;;
20411;SDS011;10365;52.578;8.138;2022-12-20T10:55:36;4.63;;;2.38;;
20411;SDS011;10365;52.578;8.138;2022-12-20T10:58:03;3.20;;;2.42;;
20411;SDS011;10365;52.578;8.138;2022-12-20T11:00:29;4.68;;;2.35;;
20411;SDS011;10365;52.578;8.138;2022-12-20T11:03:02;4.60;;;2.33;;
20411;SDS011;10365;52.578;8.138;2022-12-20T11:05:29;6.43;;;2.40;;
20411;SDS011;10365;52.578;8.138;2022-12-20T11:07:56;5.30;;;2.22;;
20411;SDS011;10365;52.578;8.138;2022-12-20T11:10:24;7.10;;;2.28;;
20411;SDS011;10365;52.578;8.138;2022-12-20T11:15:20;4.75;;;2.22;;
20411;SDS011;10365;52.578;8.138;2022-12-20T11:17:46;8.80;;;2.30;;
20411;SDS011;10365;52.578;8.138;2022-12-20T11:20:29;8.32;;;2.58;;
20411;SDS011;10365;52.578;8.138;2022-12-20T11:28:30;11.07;;;5.88;;
20411;SDS011;10365;52.578;8.138;2022-12-20T11:33:44;8.55;;;3.17;;
20411;SDS011;10365;52.578;8.138;2022-12-20T11:38:51;4.28;;;2.80;;
20411;SDS011;10365;52.578;8.138;2022-12-20T11:41:25;6.07;;;3.22;;
20411;SDS011;10365;52.578;8.138;2022-12-20T11:49:21;9.13;;;5.10;;
20411;SDS011;10365;52.578;8.138;2022-12-20T11:54:42;8.30;;;5.20;;
20411;SDS011;10365;52.578;8.138;2022-12-20T11:57:14;9.63;;;5.70;;
20411;SDS011;10365;52.578;8.138;2022-12-20T11:59:46;11.35;;;5.10;;
20411;SDS011;10365;52.578;8.138;2022-12-20T12:05:02;5.32;;;3.15;;
20411;SDS011;10365;52.578;8.138;2022-12-20T12:07:28;9.13;;;3.40;;
20411;SDS011;10365;52.578;8.138;2022-12-20T12:10:03;5.22;;;2.70;;
20411;SDS011;10365;52.578;8.138;2022-12-20T12:12:37;7.93;;;2.97;;
20411;SDS011;10365;52.578;8.138;2022-12-20T12:22:44;3.45;;;2.30;;
20411;SDS011;10365;52.578;8.138;2022-12-20T12:25:12;5.75;;;3.00;;
20411;SDS011;10365;52.578;8.138;2022-12-20T12:27:39;4.45;;;2.80;;
20411;SDS011;10365;52.578;8.138;2022-12-20T12:30:05;8.80;;;2.50;;
20411;SDS011;10365;52.578;8.138;2022-12-20T12:45:45;7.30;;;2.40;;
20411;SDS011;10365;52.578;8.138;2022-12-20T12:50:47;5.38;;;3.33;;
20411;SDS011;10365;52.578;8.138;2022-12-20T12:53:17;8.80;;;2.85;;
20411;SDS011;10365;52.578;8.138;2022-12-20T13:03:14;6.38;;;2.40;;
20411;SDS011;10365;52.578;8.138;2022-12-20T13:05:40;6.38;;;2.47;;
20411;SDS011;10365;52.578;8.138;2022-12-20T13:08:16;9.70;;;5.47;;
20411;SDS011;10365;52.578;8.138;2022-12-20T13:13:19;5.88;;;3.17;;
20411;SDS011;10365;52.578;8.138;2022-12-20T13:15:46;4.30;;;2.95;;
20411;SDS011;10365;52.578;8.138;2022-12-20T13:20:37;4.72;;;2.83;;
20411;SDS011;10365;52.578;8.138;2022-12-20T13:25:32;6.65;;;3.03;;
20411;SDS011;10365;52.578;8.138;2022-12-20T13:30:44;6.57;;;3.22;;
20411;SDS011;10365;52.578;8.138;2022-12-20T13:33:18;6.38;;;2.78;;
20411;SDS011;10365;52.578;8.138;2022-12-20T13:40:59;10.15;;;3.67;;
20411;SDS011;10365;52.578;8.138;2022-12-20T13:43:28;10.32;;;3.40;;
20411;SDS011;10365;52.578;8.138;2022-12-20T13:51:02;7.35;;;3.70;;
20411;SDS011;10365;52.578;8.138;2022-12-20T13:53:28;8.13;;;3.45;;
20411;SDS011;10365;52.578;8.138;2022-12-20T13:55:55;9.05;;;3.17;;
20411;SDS011;10365;52.578;8.138;2022-12-20T13:58:24;6.07;;;3.33;;
20411;SDS011;10365;52.578;8.138;2022-12-20T14:00:51;9.13;;;3.08;;
20411;SDS011;10365;52.578;8.138;2022-12-20T14:05:43;16.98;;;12.70;;
20411;SDS011;10365;52.578;8.138;2022-12-20T14:08:12;7.95;;;6.55;;
20411;SDS011;10365;52.578;8.138;2022-12-20T14:10:38;8.20;;;5.78;;
20411;SDS011;10365;52.578;8.138;2022-12-20T14:13:23;6.60;;;3.67;;
20411;SDS011;10365;52.578;8.138;2022-12-20T14:15:49;6.07;;;3.85;;
20411;SDS011;10365;52.578;8.138;2022-12-20T14:18:25;7.72;;;3.80;;
20411;SDS011;10365;52.578;8.138;2022-12-20T14:20:52;7.28;;;3.58;;
20411;SDS011;10365;52.578;8.138;2022-12-20T14:23:21;9.68;;;4.95;;
20411;SDS011;10365;52.578;8.138;2022-12-20T14:25:51;5.95;;;3.80;;
20411;SDS011;10365;52.578;8.138;2022-12-20T14:30:50;16.60;;;7.95;;
20411;SDS011;10365;52.578;8.138;2022-12-20T14:33:20;10.07;;;5.32;;
20411;SDS011;10365;52.578;8.138;2022-12-20T14:35:49;10.70;;;5.10;;
20411;SDS011;10365;52.578;8.138;2022-12-20T14:38:24;10.63;;;5.38;;
20411;SDS011;10365;52.578;8.138;2022-12-20T14:40:52;12.02;;;4.72;;
20411;SDS011;10365;52.578;8.138;2022-12-20T14:43:25;22.95;;;7.03;;
20411;SDS011;10365;52.578;8.138;2022-12-20T14:46:05;21.17;;;7.70;;
20411;SDS011;10365;52.578;8.138;2022-12-20T14:48:31;17.10;;;4.55;;
20411;SDS011;10365;52.578;8.138;2022-12-20T14:50:56;8.60;;;4.03;;
20411;SDS011;10365;52.578;8.138;2022-12-20T14:53:22;10.20;;;4.07;;
20411;SDS011;10365;52.578;8.138;2022-12-20T14:55:54;11.52;;;5.03;;
20411;SDS011;10365;52.578;8.138;2022-12-20T14:58:27;5.85;;;3.63;;
20411;SDS011;10365;52.578;8.138;2022-12-20T15:03:23;15.02;;;7.32;;
20411;SDS011;10365;52.578;8.138;2022-12-20T15:05:49;10.50;;;4.75;;
20411;SDS011;10365;52.578;8.138;2022-12-20T15:08:26;6.93;;;4.40;;
20411;SDS011;10365;52.578;8.138;2022-12-20T15:13:26;11.10;;;5.03;;
20411;SDS011;10365;52.578;8.138;2022-12-20T15:15:52;8.63;;;4.00;;
20411;SDS011;10365;52.578;8.138;2022-12-20T15:18:18;9.00;;;6.10;;
20411;SDS011;10365;52.578;8.138;2022-12-20T15:20:50;12.95;;;9.10;;
20411;SDS011;10365;52.578;8.138;2022-12-20T15:23:20;11.68;;;5.95;;
20411;SDS011;10365;52.578;8.138;2022-12-20T15:25:46;9.27;;;4.90;;
20411;SDS011;10365;52.578;8.138;2022-12-20T15:28:13;8.00;;;3.65;;
20411;SDS011;10365;52.578;8.138;2022-12-20T15:30:39;6.82;;;4.75;;
20411;SDS011;10365;52.578;8.138;2022-12-20T15:33:05;6.38;;;4.05;;
20411;SDS011;10365;52.578;8.138;2022-12-20T15:35:31;8.65;;;4.05;;
20411;SDS011;10365;52.578;8.138;2022-12-20T15:37:57;10.93;;;5.30;;
20411;SDS011;10365;52.578;8.138;2022-12-20T15:40:23;6.38;;;4.75;;
20411;SDS011;10365;52.578;8.138;2022-12-20T15:42:51;12.07;;;4.45;;
20411;SDS011;10365;52.578;8.138;2022-12-20T15:45:16;11.20;;;5.53;;
20411;SDS011;10365;52.578;8.138;2022-12-20T15:47:42;9.50;;;4.43;;
20411;SDS011;10365;52.578;8.138;2022-12-20T15:50:08;8.50;;;4.80;;
20411;SDS011;10365;52.578;8.138;2022-12-20T15:52:36;9.30;;;4.93;;
20411;SDS011;10365;52.578;8.138;2022-12-20T15:55:01;11.75;;;5.18;;
20411;SDS011;10365;52.578;8.138;2022-12-20T15:57:26;10.20;;;6.38;;
20411;SDS011;10365;52.578;8.138;2022-12-20T15:59:53;9.77;;;6.30;;
20411;SDS011;10365;52.578;8.138;2022-12-20T16:02:24;9.77;;;6.32;;
20411;SDS011;10365;52.578;8.138;2022-12-20T16:04:51;10.18;;;5.97;;
20411;SDS011;10365;52.578;8.138;2022-12-20T16:07:16;11.43;;;6.53;;
20411;SDS011;10365;52.578;8.138;2022-12-20T16:09:42;11.65;;;7.90;;
20411;SDS011;10365;52.578;8.138;2022-12-20T16:12:10;12.10;;;6.45;;
20411;SDS011;10365;52.578;8.138;2022-12-20T16:14:38;11.48;;;8.52;;
20411;SDS011;10365;52.578;8.138;2022-12-20T16:17:03;16.90;;;9.38;;
20411;SDS011;10365;52.578;8.138;2022-12-20T16:19:29;15.40;;;9.65;;
20411;SDS011;10365;52.578;8.138;2022-12-20T16:21:55;15.27;;;10.63;;
20411;SDS011;10365;52.578;8.138;2022-12-20T16:24:21;15.95;;;11.52;;
20411;SDS011;10365;52.578;8.138;2022-12-20T16:26:47;14.98;;;11.40;;
20411;SDS011;10365;52.578;8.138;2022-12-20T16:29:13;16.10;;;11.68;;
20411;SDS011;10365;52.578;8.138;2022-12-20T16:31:39;16.55;;;10.95;;
20411;SDS011;10365;52.578;8.138;2022-12-20T16:34:09;19.73;;;11.98;;
20411;SDS011;10365;52.578;8.138;2022-12-20T16:36:36;22.60;;;11.70;;
20411;SDS011;10365;52.578;8.138;2022-12-20T16:39:02;13.90;;;11.82;;
20411;SDS011;10365;52.578;8.138;2022-12-20T16:41:29;16.75;;;12.48;;
20411;SDS011;10365;52.578;8.138;2022-12-20T16:43:56;16.63;;;11.70;;
20411;SDS011;10365;52.578;8.138;2022-12-20T16:46:23;16.95;;;13.38;;
20411;SDS011;10365;52.578;8.138;2022-12-20T16:48:51;23.00;;;16.52;;
20411;SDS011;10365;52.578;8.138;2022-12-20T16:51:21;15.82;;;12.57;;
20411;SDS011;10365;52.578;8.138;2022-12-20T16:53:53;17.23;;;13.07;;
20411;SDS011;10365;52.578;8.138;2022-12-20T16:56:20;17.05;;;13.70;;